Time,TemperatureF,DewpointF,PressureIn,WindDirection,WindDirectionDegrees,WindSpeedMPH,WindSpeedGustMPH,Humidity,HourlyPrecipIn,Conditions,Clouds,dailyrainin,SoftwareType,DateUTC
2013-10-15 00:01:00,56.1,35.1,31.03,ESE,122,4.0,5.0,45,0.00,,,0.00,meteohub,2013-10-15 04:01:00,
2013-10-15 00:02:00,56.1,35.1,31.03,ENE,77,5.0,5.0,45,0.00,,,0.00,meteohub,2013-10-15 04:02:00,
2013-10-15 00:03:00,56.3,35.8,31.03,East,94,5.0,5.0,46,0.00,,,0.00,meteohub,2013-10-15 04:03:00,
2013-10-15 00:06:00,56.8,36.9,31.03,East,82,6.0,7.0,47,0.00,,,0.00,meteohub,2013-10-15 04:06:00,
2013-10-15 00:07:00,57.0,37.0,31.03,ESE,112,3.0,7.0,47,0.00,,,0.00,meteohub,2013-10-15 04:07:00,
2013-10-15 00:12:00,57.4,36.7,31.03,East,91,5.0,8.0,46,0.00,,,0.00,meteohub,2013-10-15 04:12:00,
2013-10-15 00:17:00,57.6,36.9,31.03,ESE,117,5.0,8.0,46,0.00,,,0.00,meteohub,2013-10-15 04:17:00,
2013-10-15 00:23:00,57.6,36.9,31.03,ESE,102,3.0,8.0,46,0.00,,,0.00,meteohub,2013-10-15 04:23:00,
2013-10-15 00:28:00,57.6,36.9,31.03,East,94,3.0,8.0,46,0.00,,,0.00,meteohub,2013-10-15 04:28:00,
2013-10-15 00:33:00,57.6,36.3,31.03,ENE,78,5.0,6.0,45,0.00,,,0.00,meteohub,2013-10-15 04:33:00,
2013-10-15 00:39:00,57.6,36.3,31.03,ESE,108,4.0,6.0,45,0.00,,,0.00,meteohub,2013-10-15 04:39:00,
2013-10-15 00:44:00,57.4,36.1,31.03,ESE,106,3.0,6.0,45,0.00,,,0.00,meteohub,2013-10-15 04:44:00,
2013-10-15 00:49:00,56.8,35.8,31.03,ESE,109,0.0,6.0,45,0.00,,,0.00,meteohub,2013-10-15 04:49:00,
2013-10-15 00:54:00,55.8,34.2,31.03,ESE,108,0.0,5.0,44,0.00,,,0.00,meteohub,2013-10-15 04:54:00,
2013-10-15 01:00:00,54.5,33.1,31.03,ESE,108,0.0,5.0,44,0.00,,,0.00,meteohub,2013-10-15 05:00:00,
2013-10-15 01:05:00,53.8,32.4,31.03,ESE,108,0.0,3.0,44,0.00,,,0.00,meteohub,2013-10-15 05:05:00,
2013-10-15 01:10:00,53.1,31.6,31.03,ESE,108,0.0,3.0,44,0.00,,,0.00,meteohub,2013-10-15 05:10:00,
2013-10-15 01:15:00,52.2,30.9,31.03,ESE,108,0.0,0.0,44,0.00,,,0.00,meteohub,2013-10-15 05:15:00,
2013-10-15 01:20:00,52.0,30.7,31.03,ESE,108,0.0,0.0,44,0.00,,,0.00,meteohub,2013-10-15 05:20:00,
2013-10-15 01:26:00,51.6,30.9,31.03,ESE,108,0.0,0.0,45,0.00,,,0.00,meteohub,2013-10-15 05:26:00,
2013-10-15 01:32:00,51.3,30.6,31.03,ESE,111,0.0,0.0,45,0.00,,,0.00,meteohub,2013-10-15 05:32:00,
2013-10-15 01:37:00,51.1,30.6,31.03,ESE,111,0.0,0.0,45,0.00,,,0.00,meteohub,2013-10-15 05:37:00,
2013-10-15 01:42:00,50.9,30.9,31.03,ESE,111,3.0,0.0,46,0.00,,,0.00,meteohub,2013-10-15 05:42:00,
2013-10-15 01:47:00,50.7,30.2,31.03,ESE,111,4.0,4.0,45,0.00,,,0.00,meteohub,2013-10-15 05:47:00,
2013-10-15 01:52:00,50.4,30.4,31.03,ESE,111,0.0,4.0,46,0.00,,,0.00,meteohub,2013-10-15 05:52:00,
2013-10-15 01:57:00,50.4,30.4,31.03,ESE,111,0.0,4.0,46,0.00,,,0.00,meteohub,2013-10-15 05:57:00,
2013-10-15 02:02:00,50.4,30.9,31.03,ESE,111,0.0,4.0,47,0.00,,,0.00,meteohub,2013-10-15 06:02:00,
2013-10-15 02:07:00,50.2,30.7,31.03,ESE,111,0.0,2.0,47,0.00,,,0.00,meteohub,2013-10-15 06:07:00,
2013-10-15 02:12:00,50.2,30.7,31.03,ESE,111,0.0,0.0,47,0.00,,,0.00,meteohub,2013-10-15 06:12:00,
2013-10-15 02:17:00,50.2,30.7,31.03,ESE,111,0.0,0.0,47,0.00,,,0.00,meteohub,2013-10-15 06:17:00,
2013-10-15 02:22:00,50.0,30.6,31.03,ESE,111,0.0,0.0,47,0.00,,,0.00,meteohub,2013-10-15 06:22:00,
2013-10-15 02:27:00,49.8,30.4,31.03,ESE,111,0.0,0.0,47,0.00,,,0.00,meteohub,2013-10-15 06:27:00,
2013-10-15 02:32:00,49.6,30.2,31.03,ESE,111,0.0,0.0,47,0.00,,,0.00,meteohub,2013-10-15 06:32:00,
2013-10-15 02:37:00,49.5,30.0,31.03,ESE,111,0.0,0.0,47,0.00,,,0.00,meteohub,2013-10-15 06:37:00,
2013-10-15 02:42:00,49.3,29.8,31.03,ESE,111,0.0,0.0,47,0.00,,,0.00,meteohub,2013-10-15 06:42:00,
2013-10-15 02:47:00,49.3,29.8,31.03,ESE,111,0.0,0.0,47,0.00,,,0.00,meteohub,2013-10-15 06:47:00,
2013-10-15 02:52:00,49.3,29.8,31.03,ESE,111,0.0,0.0,47,0.00,,,0.00,meteohub,2013-10-15 06:52:00,
2013-10-15 02:57:00,49.1,29.7,31.03,ESE,111,0.0,0.0,47,0.00,,,0.00,meteohub,2013-10-15 06:57:00,
2013-10-15 03:03:00,49.1,29.7,31.03,ESE,111,3.0,0.0,47,0.00,,,0.00,meteohub,2013-10-15 07:03:00,
2013-10-15 03:08:00,48.9,29.7,31.03,ESE,111,4.0,4.0,47,0.00,,,0.00,meteohub,2013-10-15 07:08:00,
2013-10-15 03:13:00,48.9,30.0,31.03,ESE,111,3.0,4.0,48,0.00,,,0.00,meteohub,2013-10-15 07:13:00,
2013-10-15 03:18:00,48.9,30.0,31.03,ESE,111,4.0,4.0,48,0.00,,,0.00,meteohub,2013-10-15 07:18:00,
2013-10-15 03:24:00,48.9,30.0,31.03,ESE,116,3.0,4.0,48,0.00,,,0.00,meteohub,2013-10-15 07:24:00,
2013-10-15 03:29:00,48.9,30.0,31.03,ESE,116,3.0,4.0,48,0.00,,,0.00,meteohub,2013-10-15 07:29:00,
2013-10-15 03:34:00,48.9,30.0,31.03,WNW,293,5.0,5.0,48,0.00,,,0.00,meteohub,2013-10-15 07:34:00,
2013-10-15 03:39:00,49.1,30.2,31.03,WNW,291,0.0,4.0,48,0.00,,,0.00,meteohub,2013-10-15 07:39:00,
2013-10-15 03:45:00,49.3,30.9,31.03,WNW,291,3.0,6.0,49,0.00,,,0.00,meteohub,2013-10-15 07:45:00,
2013-10-15 03:50:00,49.5,31.1,31.03,WNW,291,3.0,6.0,49,0.00,,,0.00,meteohub,2013-10-15 07:50:00,
2013-10-15 03:55:00,49.6,31.3,31.03,WNW,291,3.0,6.0,49,0.00,,,0.00,meteohub,2013-10-15 07:55:00,
2013-10-15 04:00:00,49.5,31.1,31.03,WNW,291,3.0,6.0,49,0.00,,,0.00,meteohub,2013-10-15 08:00:00,
2013-10-15 04:06:00,49.5,31.1,31.03,WNW,291,3.0,4.0,49,0.00,,,0.00,meteohub,2013-10-15 08:06:00,
2013-10-15 04:11:00,49.3,30.9,31.03,WNW,291,3.0,4.0,49,0.00,,,0.00,meteohub,2013-10-15 08:11:00,
2013-10-15 04:16:00,49.1,30.7,31.03,WNW,291,3.0,3.0,49,0.00,,,0.00,meteohub,2013-10-15 08:16:00,
2013-10-15 04:21:00,49.1,30.7,31.03,WNW,291,3.0,3.0,49,0.00,,,0.00,meteohub,2013-10-15 08:21:00,
2013-10-15 04:26:00,48.9,30.6,31.03,WNW,291,3.0,4.0,49,0.00,,,0.00,meteohub,2013-10-15 08:26:00,
2013-10-15 04:32:00,48.7,30.4,31.03,WNW,291,2.0,4.0,49,0.00,,,0.00,meteohub,2013-10-15 08:32:00,
2013-10-15 04:37:00,48.6,30.2,31.03,WNW,291,0.0,4.0,49,0.00,,,0.00,meteohub,2013-10-15 08:37:00,
2013-10-15 04:42:00,48.6,30.2,31.03,WNW,291,0.0,3.0,49,0.00,,,0.00,meteohub,2013-10-15 08:42:00,
2013-10-15 04:47:00,48.6,30.2,31.03,WNW,291,2.0,2.0,49,0.00,,,0.00,meteohub,2013-10-15 08:47:00,
2013-10-15 04:53:00,48.4,30.0,31.03,WNW,291,3.0,3.0,49,0.00,,,0.00,meteohub,2013-10-15 08:53:00,
2013-10-15 04:54:00,48.4,30.0,31.03,WNW,291,3.0,3.0,49,0.00,,,0.00,meteohub,2013-10-15 08:54:00,
2013-10-15 04:59:00,48.2,30.0,31.03,WNW,291,3.0,3.0,49,0.00,,,0.00,meteohub,2013-10-15 08:59:00,
2013-10-15 05:04:00,48.0,30.2,31.03,WNW,291,4.0,4.0,50,0.00,,,0.00,meteohub,2013-10-15 09:04:00,
2013-10-15 05:09:00,47.8,30.0,31.03,WNW,291,3.0,4.0,50,0.00,,,0.00,meteohub,2013-10-15 09:09:00,
2013-10-15 05:15:00,47.8,30.0,31.03,WNW,291,3.0,4.0,50,0.00,,,0.00,meteohub,2013-10-15 09:15:00,
2013-10-15 05:20:00,47.8,30.0,31.03,WNW,291,0.0,4.0,50,0.00,,,0.00,meteohub,2013-10-15 09:20:00,
2013-10-15 05:25:00,48.0,30.2,31.03,WNW,291,0.0,4.0,50,0.00,,,0.00,meteohub,2013-10-15 09:25:00,
2013-10-15 05:31:00,47.8,30.0,31.03,WNW,291,3.0,4.0,50,0.00,,,0.00,meteohub,2013-10-15 09:31:00,
2013-10-15 05:36:00,47.8,30.0,31.03,WNW,291,2.0,3.0,50,0.00,,,0.00,meteohub,2013-10-15 09:36:00,
2013-10-15 05:41:00,47.7,30.0,31.03,WNW,291,3.0,3.0,50,0.00,,,0.00,meteohub,2013-10-15 09:41:00,
2013-10-15 05:46:00,47.5,29.8,31.03,WNW,291,4.0,4.0,50,0.00,,,0.00,meteohub,2013-10-15 09:46:00,
2013-10-15 05:52:00,47.5,29.8,31.03,WNW,291,3.0,3.0,50,0.00,,,0.00,meteohub,2013-10-15 09:52:00,
2013-10-15 05:57:00,47.3,29.7,31.03,WNW,291,3.0,4.0,50,0.00,,,0.00,meteohub,2013-10-15 09:57:00,
2013-10-15 06:02:00,47.3,29.7,31.03,WNW,291,3.0,4.0,50,0.00,,,0.00,meteohub,2013-10-15 10:02:00,
2013-10-15 06:07:00,47.3,29.7,31.03,WNW,291,0.0,3.0,50,0.00,,,0.00,meteohub,2013-10-15 10:07:00,
2013-10-15 06:12:00,47.3,29.7,31.03,WNW,291,3.0,3.0,50,0.00,,,0.00,meteohub,2013-10-15 10:12:00,
2013-10-15 06:17:00,47.1,29.5,31.03,WNW,291,2.0,3.0,50,0.00,,,0.00,meteohub,2013-10-15 10:17:00,
2013-10-15 06:22:00,47.1,29.5,31.03,WNW,300,0.0,3.0,50,0.00,,,0.00,meteohub,2013-10-15 10:22:00,
2013-10-15 06:27:00,47.1,29.5,31.03,WNW,300,0.0,4.0,50,0.00,,,0.00,meteohub,2013-10-15 10:27:00,
2013-10-15 06:32:00,47.1,29.5,31.03,WNW,301,0.0,4.0,50,0.00,,,0.00,meteohub,2013-10-15 10:32:00,
2013-10-15 06:37:00,47.1,29.5,31.03,WNW,301,0.0,4.0,50,0.00,,,0.00,meteohub,2013-10-15 10:37:00,
2013-10-15 06:42:00,47.1,29.8,31.03,WNW,301,2.0,3.0,51,0.00,,,0.00,meteohub,2013-10-15 10:42:00,
2013-10-15 06:47:00,47.1,29.8,31.03,WNW,300,3.0,3.0,51,0.00,,,0.00,meteohub,2013-10-15 10:47:00,
2013-10-15 06:52:00,46.8,29.1,31.03,WNW,301,0.0,4.0,50,0.00,,,0.00,meteohub,2013-10-15 10:52:00,
2013-10-15 06:57:00,46.8,29.7,31.03,WNW,300,0.0,4.0,51,0.00,,,0.00,meteohub,2013-10-15 10:57:00,
2013-10-15 07:02:00,47.1,29.8,31.03,WNW,300,0.0,4.0,51,0.00,,,0.00,meteohub,2013-10-15 11:02:00,
2013-10-15 07:07:00,46.9,29.3,31.03,WNW,300,0.0,4.0,50,0.00,,,0.00,meteohub,2013-10-15 11:07:00,
2013-10-15 07:12:00,46.9,29.8,31.03,WNW,300,0.0,4.0,51,0.00,,,0.00,meteohub,2013-10-15 11:12:00,
2013-10-15 07:18:00,46.9,29.8,31.03,WNW,300,0.0,0.0,51,0.00,,,0.00,meteohub,2013-10-15 11:18:00,
2013-10-15 07:23:00,46.9,29.8,31.03,WNW,300,0.0,0.0,51,0.00,,,0.00,meteohub,2013-10-15 11:23:00,
2013-10-15 07:28:00,46.9,29.8,31.03,WNW,301,0.0,3.0,51,0.00,,,0.00,meteohub,2013-10-15 11:28:00,
2013-10-15 07:33:00,47.1,29.8,31.03,WNW,301,0.0,3.0,51,0.00,,,0.00,meteohub,2013-10-15 11:33:00,
2013-10-15 07:39:00,47.3,30.0,31.03,WNW,300,2.0,3.0,51,0.00,,,0.00,meteohub,2013-10-15 11:39:00,
2013-10-15 07:44:00,47.5,30.2,31.03,WNW,300,0.0,3.0,51,0.00,,,0.00,meteohub,2013-10-15 11:44:00,
2013-10-15 07:49:00,47.8,31.1,31.03,WNW,300,0.0,3.0,52,0.00,,,0.00,meteohub,2013-10-15 11:49:00,
2013-10-15 07:55:00,48.0,31.3,31.03,WNW,301,0.0,3.0,52,0.00,,,0.00,meteohub,2013-10-15 11:55:00,
2013-10-15 08:00:00,48.6,31.8,31.03,WNW,289,4.0,4.0,52,0.00,,,0.00,meteohub,2013-10-15 12:00:00,
2013-10-15 08:05:00,48.9,32.0,31.03,WNW,290,4.0,4.0,52,0.00,,,0.00,meteohub,2013-10-15 12:05:00,
2013-10-15 08:10:00,49.6,32.7,31.03,WNW,290,3.0,5.0,52,0.00,,,0.00,meteohub,2013-10-15 12:10:00,
2013-10-15 08:16:00,50.4,33.4,31.03,WNW,290,0.0,5.0,52,0.00,,,0.00,meteohub,2013-10-15 12:16:00,
2013-10-15 08:21:00,50.9,34.0,31.03,WNW,291,4.0,5.0,52,0.00,,,0.00,meteohub,2013-10-15 12:21:00,
2013-10-15 08:26:00,51.6,35.1,31.03,WNW,290,0.0,4.0,53,0.00,,,0.00,meteohub,2013-10-15 12:26:00,
2013-10-15 08:32:00,52.7,36.5,31.03,WNW,291,2.0,4.0,54,0.00,,,0.00,meteohub,2013-10-15 12:32:00,
2013-10-15 08:37:00,53.6,37.4,31.03,NW,312,4.0,4.0,54,0.00,,,0.00,meteohub,2013-10-15 12:37:00,
2013-10-15 08:42:00,54.5,38.7,31.03,WNW,294,3.0,4.0,55,0.00,,,0.00,meteohub,2013-10-15 12:42:00,
2013-10-15 08:47:00,55.6,39.7,31.03,NW,315,5.0,5.0,55,0.00,,,0.00,meteohub,2013-10-15 12:47:00,
2013-10-15 08:53:00,56.3,40.8,31.03,NW,309,3.0,6.0,56,0.00,,,0.00,meteohub,2013-10-15 12:53:00,
2013-10-15 08:58:00,56.8,41.4,31.03,NW,322,4.0,6.0,56,0.00,,,0.00,meteohub,2013-10-15 12:58:00,
2013-10-15 09:03:00,57.6,41.9,31.03,NW,320,6.0,6.0,56,0.00,,,0.00,meteohub,2013-10-15 13:03:00,
2013-10-15 09:09:00,57.9,42.3,31.03,NNW,333,3.0,5.0,56,0.00,,,0.00,meteohub,2013-10-15 13:09:00,
2013-10-15 09:14:00,58.5,42.4,31.03,NW,316,6.0,6.0,55,0.00,,,0.00,meteohub,2013-10-15 13:14:00,
2013-10-15 09:19:00,58.8,41.2,31.03,NNW,338,6.0,6.0,52,0.00,,,0.00,meteohub,2013-10-15 13:19:00,
2013-10-15 09:24:00,59.2,40.1,31.03,NNE,15,5.0,6.0,49,0.00,,,0.00,meteohub,2013-10-15 13:24:00,
2013-10-15 09:30:00,59.4,39.2,31.03,NW,319,4.0,6.0,47,0.00,,,0.00,meteohub,2013-10-15 13:30:00,
2013-10-15 09:35:00,59.9,38.5,31.03,NNW,334,6.0,6.0,45,0.00,,,0.00,meteohub,2013-10-15 13:35:00,
2013-10-15 09:40:00,60.1,38.1,31.03,North,353,4.0,6.0,44,0.00,,,0.00,meteohub,2013-10-15 13:40:00,
2013-10-15 09:45:00,60.6,38.7,31.03,NW,317,4.0,6.0,44,0.00,,,0.00,meteohub,2013-10-15 13:45:00,
2013-10-15 09:51:00,61.0,38.3,31.03,NNW,342,4.0,8.0,43,0.00,,,0.00,meteohub,2013-10-15 13:51:00,
2013-10-15 09:56:00,61.2,35.4,31.03,NNW,327,6.0,8.0,38,0.00,,,0.00,meteohub,2013-10-15 13:56:00,
2013-10-15 10:01:00,61.7,35.8,31.03,North,5,4.0,8.0,38,0.00,,,0.00,meteohub,2013-10-15 14:01:00,
2013-10-15 10:07:00,62.1,34.9,31.03,NNE,20,4.0,8.0,36,0.00,,,0.00,meteohub,2013-10-15 14:07:00,
2013-10-15 10:12:00,62.1,33.4,31.03,NE,49,5.0,8.0,34,0.00,,,0.00,meteohub,2013-10-15 14:12:00,
2013-10-15 10:17:00,62.6,34.5,31.03,NE,55,7.0,7.0,35,0.00,,,0.00,meteohub,2013-10-15 14:17:00,
2013-10-15 10:22:00,62.8,34.0,31.03,NNE,33,6.0,6.0,34,0.00,,,0.00,meteohub,2013-10-15 14:22:00,
2013-10-15 10:27:00,63.0,34.2,31.03,NNE,32,6.0,8.0,34,0.00,,,0.00,meteohub,2013-10-15 14:27:00,
2013-10-15 10:32:00,63.1,34.3,31.03,NNE,31,4.0,8.0,34,0.00,,,0.00,meteohub,2013-10-15 14:32:00,
2013-10-15 10:38:00,63.3,34.5,31.03,NNE,14,5.0,8.0,34,0.00,,,0.00,meteohub,2013-10-15 14:38:00,
2013-10-15 10:43:00,63.7,34.7,31.03,NE,49,6.0,8.0,34,0.00,,,0.00,meteohub,2013-10-15 14:43:00,
2013-10-15 10:48:00,63.7,34.0,31.03,NNE,29,8.0,8.0,33,0.00,,,0.00,meteohub,2013-10-15 14:48:00,
2013-10-15 10:54:00,64.0,35.1,31.03,NE,47,6.0,8.0,34,0.00,,,0.00,meteohub,2013-10-15 14:54:00,
2013-10-15 10:59:00,64.0,35.1,31.03,ENE,59,6.0,9.0,34,0.00,,,0.00,meteohub,2013-10-15 14:59:00,
2013-10-15 11:04:00,64.0,35.1,31.03,NE,50,6.0,9.0,34,0.00,,,0.00,meteohub,2013-10-15 15:04:00,
2013-10-15 11:10:00,64.0,35.1,31.03,ENE,66,5.0,9.0,34,0.00,,,0.00,meteohub,2013-10-15 15:10:00,
2013-10-15 11:15:00,64.0,35.1,31.03,NNE,31,5.0,8.0,34,0.00,,,0.00,meteohub,2013-10-15 15:15:00,
2013-10-15 11:20:00,64.4,34.7,31.03,NE,35,8.0,8.0,33,0.00,,,0.00,meteohub,2013-10-15 15:20:00,
2013-10-15 11:25:00,64.6,34.9,31.03,NE,41,8.0,10.0,33,0.00,,,0.00,meteohub,2013-10-15 15:25:00,
2013-10-15 11:31:00,64.4,34.7,31.03,NE,52,9.0,10.0,33,0.00,,,0.00,meteohub,2013-10-15 15:31:00,
2013-10-15 11:36:00,64.2,34.5,31.03,NNE,25,8.0,10.0,33,0.00,,,0.00,meteohub,2013-10-15 15:36:00,
2013-10-15 11:41:00,64.2,32.9,31.03,NE,52,8.0,9.0,31,0.00,,,0.00,meteohub,2013-10-15 15:41:00,
2013-10-15 11:46:00,64.6,31.6,31.03,NE,47,6.0,9.0,29,0.00,,,0.00,meteohub,2013-10-15 15:46:00,
2013-10-15 11:52:00,64.8,32.5,31.03,NE,35,8.0,9.0,30,0.00,,,0.00,meteohub,2013-10-15 15:52:00,
2013-10-15 11:57:00,65.1,33.8,31.03,NE,42,6.0,9.0,31,0.00,,,0.00,meteohub,2013-10-15 15:57:00,
2013-10-15 12:02:00,65.3,33.1,31.03,NNE,23,8.0,10.0,30,0.00,,,0.00,meteohub,2013-10-15 16:02:00,
2013-10-15 12:07:00,65.3,33.1,31.03,NNE,25,9.0,10.0,30,0.00,,,0.00,meteohub,2013-10-15 16:07:00,
2013-10-15 12:12:00,65.1,33.8,31.03,NE,37,8.0,10.0,31,0.00,,,0.00,meteohub,2013-10-15 16:12:00,
2013-10-15 12:18:00,65.1,35.2,31.03,NNE,24,11.0,11.0,33,0.00,,,0.00,meteohub,2013-10-15 16:18:00,
2013-10-15 12:23:00,65.1,35.2,31.03,NE,39,9.0,11.0,33,0.00,,,0.00,meteohub,2013-10-15 16:23:00,
2013-10-15 12:28:00,65.1,35.2,31.03,NNE,24,11.0,13.0,33,0.00,,,0.00,meteohub,2013-10-15 16:28:00,
2013-10-15 12:33:00,65.1,34.5,31.03,NNE,23,13.0,13.0,32,0.00,,,0.00,meteohub,2013-10-15 16:33:00,
2013-10-15 12:39:00,65.3,35.4,31.03,NNE,31,11.0,13.0,33,0.00,,,0.00,meteohub,2013-10-15 16:39:00,
2013-10-15 12:44:00,65.3,35.4,31.03,NE,41,11.0,13.0,33,0.00,,,0.00,meteohub,2013-10-15 16:44:00,
2013-10-15 12:49:00,65.1,34.5,31.03,NNE,16,11.0,14.0,32,0.00,,,0.00,meteohub,2013-10-15 16:49:00,
2013-10-15 12:55:00,64.8,30.9,31.03,NNE,25,13.0,14.0,28,0.00,,,0.00,meteohub,2013-10-15 16:55:00,
2013-10-15 13:00:00,64.9,34.3,31.03,NNE,19,8.0,14.0,32,0.00,,,0.00,meteohub,2013-10-15 17:00:00,
2013-10-15 13:05:00,65.1,33.8,31.03,NNE,29,11.0,14.0,31,0.00,,,0.00,meteohub,2013-10-15 17:05:00,
2013-10-15 13:11:00,64.9,32.0,31.03,NE,41,11.0,14.0,29,0.00,,,0.00,meteohub,2013-10-15 17:11:00,
2013-10-15 13:16:00,64.9,30.2,31.03,North,4,9.0,13.0,27,0.00,,,0.00,meteohub,2013-10-15 17:16:00,
2013-10-15 13:21:00,65.1,30.4,31.03,NNE,31,8.0,13.0,27,0.00,,,0.00,meteohub,2013-10-15 17:21:00,
2013-10-15 13:26:00,65.1,32.0,31.03,ENE,60,8.0,13.0,29,0.00,,,0.00,meteohub,2013-10-15 17:26:00,
2013-10-15 13:31:00,65.1,30.4,31.03,NE,39,11.0,13.0,27,0.00,,,0.00,meteohub,2013-10-15 17:31:00,
2013-10-15 13:37:00,65.7,33.4,31.03,NE,41,9.0,12.0,30,0.00,,,0.00,meteohub,2013-10-15 17:37:00,
2013-10-15 13:42:00,65.7,33.4,31.03,NE,38,8.0,12.0,30,0.00,,,0.00,meteohub,2013-10-15 17:42:00,
2013-10-15 13:47:00,65.5,33.3,31.03,NE,42,8.0,12.0,30,0.00,,,0.00,meteohub,2013-10-15 17:47:00,
2013-10-15 13:52:00,65.7,34.2,31.03,NNE,28,9.0,11.0,31,0.00,,,0.00,meteohub,2013-10-15 17:52:00,
2013-10-15 13:57:00,65.7,34.2,31.03,NNE,24,8.0,11.0,31,0.00,,,0.00,meteohub,2013-10-15 17:57:00,
2013-10-15 14:02:00,65.5,33.3,31.03,NNE,31,10.0,11.0,30,0.00,,,0.00,meteohub,2013-10-15 18:02:00,
2013-10-15 14:07:00,65.3,30.4,31.03,NE,39,13.0,13.0,27,0.00,,,0.00,meteohub,2013-10-15 18:07:00,
2013-10-15 14:12:00,65.1,32.0,31.03,NE,41,11.0,13.0,29,0.00,,,0.00,meteohub,2013-10-15 18:12:00,
2013-10-15 14:17:00,65.3,31.3,31.03,North,10,13.0,15.0,28,0.00,,,0.00,meteohub,2013-10-15 18:17:00,
2013-10-15 14:22:00,65.5,34.0,31.03,NNE,28,10.0,15.0,31,0.00,,,0.00,meteohub,2013-10-15 18:22:00,
2013-10-15 14:27:00,65.1,33.8,31.03,NNE,18,10.0,15.0,31,0.00,,,0.00,meteohub,2013-10-15 18:27:00,
2013-10-15 14:32:00,65.1,34.5,31.03,NNE,21,8.0,15.0,32,0.00,,,0.00,meteohub,2013-10-15 18:32:00,
2013-10-15 14:37:00,65.1,32.0,31.03,NNE,27,13.0,13.0,29,0.00,,,0.00,meteohub,2013-10-15 18:37:00,
2013-10-15 14:42:00,64.9,32.7,31.03,NE,36,9.0,13.0,30,0.00,,,0.00,meteohub,2013-10-15 18:42:00,
2013-10-15 14:47:00,64.8,30.0,31.03,NNE,28,8.0,13.0,27,0.00,,,0.00,meteohub,2013-10-15 18:47:00,
2013-10-15 14:52:00,64.9,32.7,31.03,NE,39,9.0,13.0,30,0.00,,,0.00,meteohub,2013-10-15 18:52:00,
2013-10-15 14:57:00,64.8,30.9,31.03,NE,49,10.0,13.0,28,0.00,,,0.00,meteohub,2013-10-15 18:57:00,
2013-10-15 15:02:00,64.6,30.7,31.03,NE,43,10.0,13.0,28,0.00,,,0.00,meteohub,2013-10-15 19:02:00,
2013-10-15 15:07:00,64.4,32.4,31.03,NE,40,10.0,12.0,30,0.00,,,0.00,meteohub,2013-10-15 19:07:00,
2013-10-15 15:12:00,64.6,32.4,31.03,NE,42,10.0,12.0,30,0.00,,,0.00,meteohub,2013-10-15 19:12:00,
2013-10-15 15:17:00,64.8,32.5,31.03,NE,36,8.0,11.0,30,0.00,,,0.00,meteohub,2013-10-15 19:17:00,
2013-10-15 15:22:00,64.6,32.4,31.03,NE,44,10.0,11.0,30,0.00,,,0.00,meteohub,2013-10-15 19:22:00,
2013-10-15 15:27:00,64.8,34.2,31.03,NE,36,8.0,11.0,32,0.00,,,0.00,meteohub,2013-10-15 19:27:00,
2013-10-15 15:32:00,65.1,33.8,31.03,NNE,32,8.0,11.0,31,0.00,,,0.00,meteohub,2013-10-15 19:32:00,
2013-10-15 15:37:00,65.1,32.9,31.03,NNE,21,6.0,11.0,30,0.00,,,0.00,meteohub,2013-10-15 19:37:00,
2013-10-15 15:42:00,65.5,31.5,31.03,NE,34,7.0,11.0,28,0.00,,,0.00,meteohub,2013-10-15 19:42:00,
2013-10-15 15:47:00,65.5,30.6,31.03,NNE,20,8.0,10.0,27,0.00,,,0.00,meteohub,2013-10-15 19:47:00,
2013-10-15 15:52:00,65.3,32.2,31.03,North,8,8.0,10.0,29,0.00,,,0.00,meteohub,2013-10-15 19:52:00,
2013-10-15 15:57:00,65.1,29.3,31.03,NW,317,6.0,11.0,26,0.00,,,0.00,meteohub,2013-10-15 19:57:00,
2013-10-15 16:02:00,65.7,28.9,31.03,WNW,302,6.0,11.0,25,0.00,,,0.00,meteohub,2013-10-15 20:02:00,
2013-10-15 16:07:00,66.0,28.2,31.03,NNW,338,6.0,11.0,24,0.00,,,0.00,meteohub,2013-10-15 20:07:00,
2013-10-15 16:12:00,66.2,26.2,31.03,NW,310,4.0,9.0,22,0.00,,,0.00,meteohub,2013-10-15 20:12:00,
2013-10-15 16:17:00,66.0,17.1,31.03,WNW,295,6.0,9.0,15,0.00,,,0.00,meteohub,2013-10-15 20:17:00,
2013-10-15 16:22:00,66.0,13.8,31.03,NW,315,9.0,9.0,13,0.00,,,0.00,meteohub,2013-10-15 20:22:00,
2013-10-15 16:27:00,66.0,7.9,31.03,North,357,5.0,9.0,10,0.00,,,0.00,meteohub,2013-10-15 20:27:00,
2013-10-15 16:32:00,65.8,2.8,31.03,NNW,328,8.0,9.0,8,0.00,,,0.00,meteohub,2013-10-15 20:32:00,
2013-10-15 16:37:00,65.7,2.7,31.03,North,4,4.0,9.0,8,0.00,,,0.00,meteohub,2013-10-15 20:37:00,
2013-10-15 16:42:00,65.7,2.7,31.03,NW,322,6.0,9.0,8,0.00,,,0.00,meteohub,2013-10-15 20:42:00,
2013-10-15 16:47:00,65.1,-7.6,31.03,NE,38,9.0,9.0,5,0.00,,,0.00,meteohub,2013-10-15 20:47:00,
2013-10-15 16:52:00,64.8,2.1,31.03,North,357,8.0,9.0,8,0.00,,,0.00,meteohub,2013-10-15 20:52:00,
2013-10-15 16:58:00,64.2,1.6,31.03,North,3,9.0,9.0,8,0.00,,,0.00,meteohub,2013-10-15 20:58:00,
2013-10-15 17:03:00,63.7,11.8,31.03,North,1,8.0,9.0,13,0.00,,,0.00,meteohub,2013-10-15 21:03:00,
2013-10-15 17:08:00,63.1,18.9,31.03,North,8,10.0,11.0,18,0.00,,,0.00,meteohub,2013-10-15 21:08:00,
2013-10-15 17:13:00,63.1,18.9,31.03,North,357,8.0,11.0,18,0.00,,,0.00,meteohub,2013-10-15 21:13:00,
2013-10-15 17:19:00,63.0,16.0,31.03,North,357,8.0,11.0,16,0.00,,,0.00,meteohub,2013-10-15 21:19:00,
2013-10-15 17:24:00,62.8,18.7,31.03,North,357,5.0,10.0,18,0.00,,,0.00,meteohub,2013-10-15 21:24:00,
2013-10-15 17:29:00,62.6,22.1,31.03,NW,325,6.0,10.0,21,0.00,,,0.00,meteohub,2013-10-15 21:29:00,
2013-10-15 17:34:00,62.2,25.0,31.03,NNW,334,6.0,9.0,24,0.00,,,0.00,meteohub,2013-10-15 21:34:00,
2013-10-15 17:40:00,62.1,24.8,31.03,North,353,8.0,9.0,24,0.00,,,0.00,meteohub,2013-10-15 21:40:00,
2013-10-15 17:45:00,61.9,24.6,31.03,NNW,338,6.0,8.0,24,0.00,,,0.00,meteohub,2013-10-15 21:45:00,
2013-10-15 17:50:00,61.5,24.4,31.03,NNW,346,5.0,10.0,24,0.00,,,0.00,meteohub,2013-10-15 21:50:00,
2013-10-15 17:55:00,61.0,23.9,31.03,NNW,343,6.0,10.0,24,0.00,,,0.00,meteohub,2013-10-15 21:55:00,
2013-10-15 18:01:00,60.6,24.6,31.03,NNW,341,6.0,10.0,25,0.00,,,0.00,meteohub,2013-10-15 22:01:00,
2013-10-15 18:06:00,60.4,25.3,31.03,North,353,3.0,8.0,26,0.00,,,0.00,meteohub,2013-10-15 22:06:00,
2013-10-15 18:11:00,60.1,25.2,31.03,NNW,336,3.0,8.0,26,0.00,,,0.00,meteohub,2013-10-15 22:11:00,
2013-10-15 18:16:00,59.9,25.9,31.03,NNW,341,6.0,8.0,27,0.00,,,0.00,meteohub,2013-10-15 22:16:00,
2013-10-15 18:22:00,59.7,26.6,31.03,NNW,348,5.0,6.0,28,0.00,,,0.00,meteohub,2013-10-15 22:22:00,
2013-10-15 18:27:00,59.5,27.3,31.03,North,353,3.0,6.0,29,0.00,,,0.00,meteohub,2013-10-15 22:27:00,
2013-10-15 18:32:00,59.5,28.0,31.03,North,350,3.0,6.0,30,0.00,,,0.00,meteohub,2013-10-15 22:32:00,
2013-10-15 18:37:00,59.4,28.8,31.03,North,353,4.0,6.0,31,0.00,,,0.00,meteohub,2013-10-15 22:37:00,
2013-10-15 18:42:00,59.2,29.3,31.03,North,353,4.0,5.0,32,0.00,,,0.00,meteohub,2013-10-15 22:42:00,
2013-10-15 18:47:00,59.0,30.0,31.03,NNW,332,4.0,5.0,33,0.00,,,0.00,meteohub,2013-10-15 22:47:00,
2013-10-15 18:52:00,58.8,30.6,31.03,NNW,333,4.0,5.0,34,0.00,,,0.00,meteohub,2013-10-15 22:52:00,
2013-10-15 18:57:00,58.5,30.9,31.03,NNW,333,3.0,5.0,35,0.00,,,0.00,meteohub,2013-10-15 22:57:00,
2013-10-15 19:03:00,58.5,30.9,31.03,NNW,334,4.0,5.0,35,0.00,,,0.00,meteohub,2013-10-15 23:03:00,
2013-10-15 19:08:00,58.1,30.6,31.03,NNW,334,4.0,5.0,35,0.00,,,0.00,meteohub,2013-10-15 23:08:00,
2013-10-15 19:13:00,57.9,31.1,31.03,NNW,332,5.0,5.0,36,0.00,,,0.00,meteohub,2013-10-15 23:13:00,
2013-10-15 19:18:00,57.7,30.9,31.03,NNW,332,4.0,5.0,36,0.00,,,0.00,meteohub,2013-10-15 23:18:00,
2013-10-15 19:23:00,57.6,30.7,31.03,NNW,332,3.0,5.0,36,0.00,,,0.00,meteohub,2013-10-15 23:23:00,
2013-10-15 19:29:00,57.2,30.6,31.03,NNW,332,3.0,5.0,36,0.00,,,0.00,meteohub,2013-10-15 23:29:00,
2013-10-15 19:34:00,57.0,30.9,31.03,NNW,330,3.0,5.0,37,0.00,,,0.00,meteohub,2013-10-15 23:34:00,
2013-10-15 19:39:00,57.0,31.6,31.03,NNW,331,3.0,5.0,38,0.00,,,0.00,meteohub,2013-10-15 23:39:00,
2013-10-15 19:45:00,56.8,31.5,31.03,NNW,331,3.0,5.0,38,0.00,,,0.00,meteohub,2013-10-15 23:45:00,
2013-10-15 19:50:00,56.7,32.0,31.03,NNW,333,4.0,5.0,39,0.00,,,0.00,meteohub,2013-10-15 23:50:00,
2013-10-15 19:55:00,56.7,32.5,31.03,NNW,334,4.0,4.0,40,0.00,,,0.00,meteohub,2013-10-15 23:55:00,
2013-10-15 20:00:00,56.5,33.1,31.03,NW,324,4.0,4.0,41,0.00,,,0.00,meteohub,2013-10-16 00:00:00,
2013-10-15 20:06:00,56.3,32.9,31.03,NW,325,4.0,5.0,41,0.00,,,0.00,meteohub,2013-10-16 00:06:00,
2013-10-15 20:11:00,56.3,32.9,31.03,NW,325,4.0,5.0,41,0.00,,,0.00,meteohub,2013-10-16 00:11:00,
2013-10-15 20:16:00,56.3,33.4,31.03,NW,325,3.0,5.0,42,0.00,,,0.00,meteohub,2013-10-16 00:16:00,
2013-10-15 20:22:00,56.1,33.3,31.03,NW,325,4.0,5.0,42,0.00,,,0.00,meteohub,2013-10-16 00:22:00,
2013-10-15 20:27:00,56.1,33.3,31.03,NW,325,4.0,5.0,42,0.00,,,0.00,meteohub,2013-10-16 00:27:00,
2013-10-15 20:32:00,55.8,33.1,31.03,NW,325,4.0,5.0,42,0.00,,,0.00,meteohub,2013-10-16 00:32:00,
2013-10-15 20:37:00,55.6,32.9,31.03,NW,325,3.0,4.0,42,0.00,,,0.00,meteohub,2013-10-16 00:37:00,
2013-10-15 20:42:00,55.4,32.7,31.03,NW,325,3.0,4.0,42,0.00,,,0.00,meteohub,2013-10-16 00:42:00,
2013-10-15 20:47:00,55.2,33.1,31.03,NW,325,3.0,4.0,43,0.00,,,0.00,meteohub,2013-10-16 00:47:00,
2013-10-15 20:52:00,55.0,32.9,31.03,NW,325,4.0,4.0,43,0.00,,,0.00,meteohub,2013-10-16 00:52:00,
2013-10-15 20:58:00,54.7,32.5,31.03,NW,325,4.0,4.0,43,0.00,,,0.00,meteohub,2013-10-16 00:58:00,
2013-10-15 21:03:00,54.5,32.5,31.03,NW,325,4.0,4.0,43,0.00,,,0.00,meteohub,2013-10-16 01:03:00,
2013-10-15 21:08:00,54.1,32.2,31.03,NW,321,4.0,4.0,43,0.00,,,0.00,meteohub,2013-10-16 01:08:00,
2013-10-15 21:13:00,54.1,32.2,31.03,NW,321,4.0,4.0,43,0.00,,,0.00,meteohub,2013-10-16 01:13:00,
2013-10-15 21:19:00,54.1,32.7,31.03,NW,321,3.0,4.0,44,0.00,,,0.00,meteohub,2013-10-16 01:19:00,
2013-10-15 21:24:00,54.0,32.5,31.03,NNW,332,4.0,4.0,44,0.00,,,0.00,meteohub,2013-10-16 01:24:00,
2013-10-15 21:29:00,54.0,32.5,31.03,NNW,337,4.0,4.0,44,0.00,,,0.00,meteohub,2013-10-16 01:29:00,
2013-10-15 21:35:00,54.0,32.5,31.03,NNW,338,4.0,5.0,44,0.00,,,0.00,meteohub,2013-10-16 01:35:00,
2013-10-15 21:40:00,54.0,33.1,31.03,NNW,340,4.0,5.0,45,0.00,,,0.00,meteohub,2013-10-16 01:40:00,
2013-10-15 21:45:00,54.0,33.1,31.03,NNW,339,4.0,4.0,45,0.00,,,0.00,meteohub,2013-10-16 01:45:00,
2013-10-15 21:50:00,54.0,33.6,31.03,NNW,327,4.0,5.0,46,0.00,,,0.00,meteohub,2013-10-16 01:50:00,
2013-10-15 21:56:00,53.8,32.9,31.03,NW,326,4.0,5.0,45,0.00,,,0.00,meteohub,2013-10-16 01:56:00,
2013-10-15 22:01:00,53.8,33.4,31.03,NNW,328,4.0,5.0,46,0.00,,,0.00,meteohub,2013-10-16 02:01:00,
2013-10-15 22:06:00,53.8,33.4,31.03,NNW,329,4.0,6.0,46,0.00,,,0.00,meteohub,2013-10-16 02:06:00,
2013-10-15 22:11:00,53.6,33.3,31.03,NNW,329,3.0,6.0,46,0.00,,,0.00,meteohub,2013-10-16 02:11:00,
2013-10-15 22:17:00,53.4,33.1,31.03,NNW,328,4.0,5.0,46,0.00,,,0.00,meteohub,2013-10-16 02:17:00,
2013-10-15 22:22:00,53.2,33.1,31.03,NW,321,4.0,5.0,46,0.00,,,0.00,meteohub,2013-10-16 02:22:00,
2013-10-15 22:27:00,53.1,33.4,31.03,NW,320,4.0,6.0,47,0.00,,,0.00,meteohub,2013-10-16 02:27:00,
2013-10-15 22:32:00,53.1,33.4,31.03,NW,315,5.0,6.0,47,0.00,,,0.00,meteohub,2013-10-16 02:32:00,
2013-10-15 22:37:00,53.1,33.4,31.03,NW,311,4.0,5.0,47,0.00,,,0.00,meteohub,2013-10-16 02:37:00,
2013-10-15 22:42:00,52.9,33.3,31.03,NW,311,5.0,5.0,47,0.00,,,0.00,meteohub,2013-10-16 02:42:00,
2013-10-15 22:47:00,52.9,33.3,31.03,NW,311,4.0,5.0,47,0.00,,,0.00,meteohub,2013-10-16 02:47:00,
2013-10-15 22:52:00,52.9,33.3,31.03,WNW,293,4.0,6.0,47,0.00,,,0.00,meteohub,2013-10-16 02:52:00,
2013-10-15 22:57:00,52.9,33.8,31.03,WNW,288,4.0,6.0,48,0.00,,,0.00,meteohub,2013-10-16 02:57:00,
2013-10-15 23:02:00,52.9,33.8,31.03,WNW,288,4.0,6.0,48,0.00,,,0.00,meteohub,2013-10-16 03:02:00,
2013-10-15 23:07:00,52.9,33.8,31.03,WNW,288,4.0,6.0,48,0.00,,,0.00,meteohub,2013-10-16 03:07:00,
2013-10-15 23:12:00,52.7,33.6,31.03,WNW,288,4.0,6.0,48,0.00,,,0.00,meteohub,2013-10-16 03:12:00,
2013-10-15 23:17:00,52.5,33.4,31.03,WNW,288,4.0,4.0,48,0.00,,,0.00,meteohub,2013-10-16 03:17:00,
2013-10-15 23:22:00,52.5,33.4,31.03,WNW,288,4.0,4.0,48,0.00,,,0.00,meteohub,2013-10-16 03:22:00,
2013-10-15 23:27:00,52.5,33.4,31.03,WNW,288,3.0,4.0,48,0.00,,,0.00,meteohub,2013-10-16 03:27:00,
2013-10-15 23:32:00,52.5,33.4,31.03,WNW,289,4.0,4.0,48,0.00,,,0.00,meteohub,2013-10-16 03:32:00,
2013-10-15 23:37:00,52.5,33.4,31.03,WNW,289,2.0,5.0,48,0.00,,,0.00,meteohub,2013-10-16 03:37:00,
2013-10-15 23:42:00,52.5,33.4,31.03,WNW,289,0.0,5.0,48,0.00,,,0.00,meteohub,2013-10-16 03:42:00,
2013-10-15 23:47:00,52.3,33.3,31.03,WNW,289,3.0,5.0,48,0.00,,,0.00,meteohub,2013-10-16 03:47:00,
2013-10-15 23:52:00,52.2,33.1,31.03,WNW,288,3.0,4.0,48,0.00,,,0.00,meteohub,2013-10-16 03:52:00,
2013-10-15 23:57:00,52.0,32.9,31.03,WNW,291,4.0,4.0,48,0.00,,,0.00,meteohub,2013-10-16 03:57:00,